Aberdeen, ID

5:53 PM MDT on August 18, 2019 (GMT -0600)
Agricultural Farm Land | | Change Station
Active Advisory: Fire Weather Warning

Elev 4449 ft 43.20 °N, 112.49 °W | Updated 7 minutes ago

Clear
Clear
88.8 °F
Feels Like 85 °F
N
0
Wind Variable Wind from SW
Gusts 13.0 mph

Today
High -- | Low -- °F
--% Chance of Precip.
Yesterday
High -- | Low -- °F
Precip. -- in
Pressure 29.80 in
Visibility 10.0 miles
Clouds Clear
Heat Index 85 °F
Dew Point 39 °F
Humidity 17%
Rainfall 0.00 in
Snow Depth Not available.
6:39 AM 8:28 PM
Waning Gibbous, 89% visible
METAR KPIH 182253Z 28017G21KT 10SM CLR 32/M02 A2994 RMK AO2 SLP091 T03221017
Pressure 29.80 in
Visibility 10.0 miles
Clouds Clear
Heat Index 85 °F
Dew Point 39 °F
Humidity 17%
Rainfall 0.00 in
Snow Depth Not available.
6:39 AM 8:28 PM
Waning Gibbous, 89% visible
METAR KPIH 182253Z 28017G21KT 10SM CLR 32/M02 A2994 RMK AO2 SLP091 T03221017

Get Your Daily Forecast Email!

Thanks for signing up!

Be on the lookout for a verification email in your inbox.

You'll start receiving severe weather alerts in your inbox..

×

10-Day Weather Forecast

Almanac

Astronomy

Aug. 18, 2019 Rise Set
Actual Time
Civil Twilight
Nautical Twilight
Astronomical Twilight
Moon
Length of Visible Light
Length of Day
Tomorrow will be .
, % of the Moon is Illuminated

Today's Extremes

State Highs State Lows

Community

WunderPhotos

Category 6

Welcome to Category 6. This is the collective home for Weather Underground's featured writeups by Dr. Jeff Masters (right), Bob Henson (left), Chris Burt, and other regular contributors.

Nearby

Air Quality

  Air Quality AQ Index Pollutant
Not available.

Snow Depth

Station Depth Elevation

Earthquake Activity

City Distance Mag. Time & Date
Minimum magnitude displayed is 2.5.

Coastal Water Temperatures

Place Temperature

Stations

Nearby Weather Stations

Station Location Temp. Windchill Dew Point Humidity Wind Precip. Elev Updated Type
                   

Watches & Warnings

Fire Weather Warning
Issued: 2:35 AM MDT Aug. 18, 2019 – National Weather Service

... Red flag warning remains in effect from noon today to 9 PM MDT
this evening for gusty winds and low humidity for fire weather
zone 410...

* affected area... fire weather zone 410 upper Snake River
Valley/Idaho Falls blm. Mainly over the Arco desert and the
western side of fire weather zone 410.

* Winds... southwest 15 to 25 mph with gusts up to 35 mph.

* Relative humidity... as low as 11 percent.

* Impacts... once a fire starts, fast fire spread rates and high
intensity fires are likely to result.

* Relative humidity at or below 15 percent and wind gusts of at
least 25 mph in the mountains, or 30 mph in the snake plain.

Precautionary/preparedness actions...

A red flag warning means that critical fire weather conditions
are either occurring now, or will shortly based on relative
humidity at or below 15 percent and wind gusts of at least 25 mph
in the mountains, or 30 mph in the snake plain.



Messick